Time;durP1;ratioP1;P1;durP2;ratioP2;P2;SDS_P1;SDS_P2;PMS_P1;PMS_P2;Temp;Humidity;BMP_temperature;BMP_pressure;BME280_temperature;BME280_humidity;BME280_pressure;Samples;Min_cycle;Max_cycle;Signal;HPM_P1;HPM_P2
2021/10/04 00:00:21;;;;;;;;;;;;;;;;;;;;;
2021/10/04 00:07:04;;;;;;;;;;;;;;;;;;;;;
2021/10/04 00:10:10;;;;;;;;;0.67;0.67;;;;;15.45;nan;100680.13;4762242;29;72104;-81
2021/10/04 00:12:41;;;;;;;;;0.33;0.33;;;;;15.17;nan;100645.50;4713800;30;45368;-81
2021/10/04 00:27:16;;;;;;;;;;;;;;;;;;;;;
2021/10/04 00:29:57;;;;;;;;;1.00;1.00;;;;;14.99;nan;100623.28;4739937;30;64373;-82
2021/10/04 00:32:47;;;;;;;;;;;;;;;;;;;;;
2021/10/04 00:35:34;;;;;;;;;;;;;;;;;;;;;
2021/10/04 00:39:03;;;;;;;;;0.00;0.00;;;;;15.16;nan;100657.09;4755046;29;68013;-82
2021/10/04 00:45:10;;;;;;;;;1.00;1.00;;;;;15.23;nan;100663.28;4711664;30;45887;-82
2021/10/04 00:47:39;;;;;;;;;0.00;0.00;;;;;14.90;nan;100633.13;4771451;29;45550;-82
2021/10/04 00:50:07;;;;;;;;;1.00;1.00;;;;;14.91;nan;100641.16;4757683;29;44833;-82
2021/10/04 00:56:23;;;;;;;;;3.00;1.00;;;;;15.07;nan;100638.38;4770637;29;45497;-82
2021/10/04 00:58:50;;;;;;;;;0.00;0.00;;;;;15.16;nan;100666.00;4756366;29;45584;-82
2021/10/04 01:01:29;;;;;;;;;;;;;;;;;;;;;
2021/10/04 01:04:07;;;;;;;;;0.33;0.33;;;;;15.08;nan;100634.81;4811992;29;65833;-84
2021/10/04 01:06:35;;;;;;;;;1.00;0.00;;;;;14.89;nan;100648.31;4815217;29;45560;-84
2021/10/04 01:09:03;;;;;;;;;1.00;1.00;;;;;14.96;nan;100635.78;4815634;29;45444;-84
2021/10/04 01:11:30;;;;;;;;;0.67;0.67;;;;;15.07;nan;100674.13;4815901;29;45240;-83
2021/10/04 01:13:55;;;;;;;;;0.00;0.00;;;;;15.00;nan;100662.53;4815634;29;45579;-84
2021/10/04 01:16:21;;;;;;;;;0.00;0.00;;;;;14.92;nan;100659.00;4799894;29;46241;-84
2021/10/04 01:18:49;;;;;;;;;0.67;0.00;;;;;14.80;nan;100637.63;4836720;29;45502;-84
2021/10/04 01:21:35;;;;;;;;;2.00;0.00;;;;;15.03;nan;100644.66;4856780;29;44769;-84
2021/10/04 01:27:42;;;;;;;;;;;;;;;;;;;;;
2021/10/04 01:30:10;;;;;;;;;0.00;0.00;;;;;14.89;nan;100647.44;4858233;29;72188;-83
2021/10/04 01:33:18;;;;;;;;;0.33;0.00;;;;;15.20;nan;100681.16;4861526;29;45002;-84
2021/10/04 01:42:51;;;;;;;;;1.00;1.00;;;;;15.10;nan;100662.50;4774451;29;45432;-83
2021/10/04 01:45:22;;;;;;;;;1.67;1.00;;;;;14.92;nan;100648.28;4778283;29;44853;-84
2021/10/04 01:48:04;;;;;;;;;;;;;;;;;;;;;
2021/10/04 01:50:43;;;;;;;;;2.00;2.00;;;;;14.89;nan;100651.00;4795500;29;74418;-84
2021/10/04 01:53:16;;;;;;;;;0.00;0.00;;;;;14.86;nan;100667.06;4797341;29;44937;-84
2021/10/04 01:56:03;;;;;;;;;;;;;;;;;;;;;
2021/10/04 01:58:41;;;;;;;;;1.00;1.00;;;;;14.94;nan;100673.25;4796334;29;65393;-84
2021/10/04 02:01:07;;;;;;;;;0.00;0.00;;;;;14.59;nan;100625.25;4772697;29;46962;-83
2021/10/04 02:04:28;;;;;;;;;;;;;;;;;;;;;
2021/10/04 02:13:33;;;;;;;;;0.00;0.00;;;;;14.59;nan;100644.88;4775692;29;46040;-83
2021/10/04 02:16:01;;;;;;;;;0.00;0.00;;;;;14.88;nan;100669.75;4784785;29;45498;-83
2021/10/04 02:18:32;;;;;;;;;0.00;0.00;;;;;14.82;nan;100651.03;4812276;29;45488;-83
2021/10/04 02:21:36;;;;;;;;;;;;;;;;;;;;;
2021/10/04 02:24:15;;;;;;;;;;;;;;;;;;;;;
2021/10/04 02:27:18;;;;;;;;;1.33;0.33;;;;;14.95;nan;100688.44;4872065;29;72871;-84
2021/10/04 02:29:47;;;;;;;;;1.00;1.00;;;;;14.68;nan;100677.84;4876380;28;45435;-84
2021/10/04 02:32:12;;;;;;;;;0.00;0.00;;;;;14.70;nan;100678.75;4876443;28;44808;-83
2021/10/04 02:34:38;;;;;;;;;0.67;0.67;;;;;14.72;nan;100687.66;4872638;29;45434;-83
2021/10/04 02:37:04;;;;;;;;;1.00;1.00;;;;;14.62;nan;100669.84;4873129;28;45487;-83
2021/10/04 02:39:40;;;;;;;;;;;;;;;;;;;;;
2021/10/04 02:42:19;;;;;;;;;;;;;;;;;;;;;
2021/10/04 02:44:51;;;;;;;;;1.00;0.00;;;;;14.60;nan;100657.38;4854802;29;74871;-84
2021/10/04 02:47:21;;;;;;;;;0.00;0.00;;;;;14.77;nan;100680.50;4853081;29;45557;-83
2021/10/04 02:49:46;;;;;;;;;1.00;1.00;;;;;14.48;nan;100652.03;4851070;29;45827;-84
2021/10/04 02:52:27;;;;;;;;;;;;;;;;;;;;;
2021/10/04 02:58:49;;;;;;;;;1.00;0.00;;;;;14.78;nan;100672.47;4795914;29;45445;-84
2021/10/04 03:01:28;;;;;;;;;;;;;;;;;;;;;
2021/10/04 03:03:54;;;;;;;;;0.00;0.00;;;;;14.44;nan;100660.06;4760957;29;64612;-83
2021/10/04 03:13:41;;;;;;;;;1.00;1.00;;;;;14.57;nan;100686.81;4657476;30;45580;-84
2021/10/04 03:16:49;;;;;;;;;0.33;0.00;;;;;14.77;nan;100696.56;4656728;30;45750;-84
2021/10/04 03:19:15;;;;;;;;;0.00;0.00;;;;;14.30;nan;100660.09;4629614;30;45421;-84
2021/10/04 03:21:51;;;;;;;;;;;;;;;;;;;;;
2021/10/04 03:24:17;;;;;;;;;0.00;0.00;;;;;14.40;nan;100670.78;4653572;30;68893;-84
2021/10/04 03:26:45;;;;;;;;;1.00;1.00;;;;;14.65;nan;100702.84;4640461;30;45554;-84
2021/10/04 03:29:11;;;;;;;;;0.67;0.67;;;;;14.43;nan;100691.28;4653577;30;47686;-83
2021/10/04 03:31:55;;;;;;;;;0.00;0.00;;;;;14.58;nan;100685.03;4654716;30;45558;-83
2021/10/04 03:34:27;;;;;;;;;0.67;0.67;;;;;14.54;nan;100686.81;4628532;30;45587;-83
2021/10/04 03:37:16;;;;;;;;;;;;;;;;;;;;;
2021/10/04 03:40:08;;;;;;;;;1.00;1.00;;;;;14.43;nan;100656.50;4653091;30;75213;-84
2021/10/04 03:42:34;;;;;;;;;1.33;1.00;;;;;14.19;nan;100655.66;4639790;30;45829;-83
2021/10/04 03:45:00;;;;;;;;;0.00;0.00;;;;;14.23;nan;100661.03;4652294;30;45526;-83
2021/10/04 03:47:39;;;;;;;;;;;;;;;;;;;;;
2021/10/04 03:50:20;;;;;;;;;0.33;0.00;;;;;14.50;nan;100681.44;4749331;29;73902;-84
2021/10/04 03:53:49;;;;;;;;;;;;;;;;;;;;;
2021/10/04 03:59:37;;;;;;;;;1.00;0.33;;;;;14.31;nan;100685.97;4797133;29;44851;-84
2021/10/04 04:02:03;;;;;;;;;0.00;0.00;;;;;14.22;nan;100678.88;4796257;29;47940;-84
2021/10/04 04:04:47;;;;;;;;;1.00;1.00;;;;;14.46;nan;100696.66;4798972;29;46150;-83
2021/10/04 04:07:18;;;;;;;;;2.00;0.00;;;;;14.20;nan;100672.63;4797096;29;45558;-84
2021/10/04 04:09:50;;;;;;;;;1.00;1.00;;;;;14.40;nan;100704.66;4795330;29;44910;-84
2021/10/04 04:12:15;;;;;;;;;0.33;0.33;;;;;14.21;nan;100702.03;4796435;29;45492;-84
2021/10/04 04:14:41;;;;;;;;;0.33;0.33;;;;;14.15;nan;100691.34;4780745;29;44915;-84
2021/10/04 04:17:07;;;;;;;;;1.00;1.00;;;;;14.07;nan;100690.44;4796105;29;44783;-84
2021/10/04 04:19:33;;;;;;;;;2.00;2.00;;;;;14.32;nan;100741.22;4796226;29;45731;-84
2021/10/04 04:22:08;;;;;;;;;;;;;;;;;;;;;
2021/10/04 04:24:34;;;;;;;;;2.00;2.00;;;;;14.18;nan;100739.50;4802284;29;71227;-84
2021/10/04 04:27:06;;;;;;;;;0.67;0.67;;;;;14.24;nan;100718.97;4797425;29;45885;-83
2021/10/04 04:30:07;;;;;;;;;;;;;;;;;;;;;
2021/10/04 04:32:34;;;;;;;;;2.00;0.67;;;;;14.17;nan;100736.81;4861289;29;74093;-83
2021/10/04 04:35:09;;;;;;;;;1.00;1.00;;;;;14.06;nan;100704.72;4868977;29;45612;-84
2021/10/04 04:37:43;;;;;;;;;2.00;2.00;;;;;14.28;nan;100736.78;4868382;29;45796;-84
2021/10/04 04:41:05;;;;;;;;;3.00;1.33;;;;;14.16;nan;100702.94;4854139;29;44926;-83
2021/10/04 04:43:31;;;;;;;;;1.00;1.00;;;;;14.02;nan;100724.34;4794420;29;47029;-84
2021/10/04 04:46:50;;;;;;;;;;;;;;;;;;;;;
2021/10/04 04:49:34;;;;;;;;;1.00;1.00;;;;;14.05;nan;100729.69;4794311;29;68920;-84
2021/10/04 04:52:38;;;;;;;;;1.00;1.00;;;;;14.27;nan;100743.94;4797913;29;45512;-84
2021/10/04 04:55:30;;;;;;;;;2.00;2.00;;;;;13.94;nan;100696.72;4782012;29;46959;-84
2021/10/04 04:58:37;;;;;;;;;2.00;2.00;;;;;13.98;nan;100709.19;4794087;29;45435;-83
2021/10/04 05:05:07;;;;;;;;;3.67;2.67;;;;;14.04;nan;100751.97;4741508;30;45517;-83
2021/10/04 05:07:41;;;;;;;;;1.00;1.00;;;;;13.92;nan;100733.25;4726085;30;47618;-83
2021/10/04 05:10:36;;;;;;;;;1.00;1.00;;;;;14.10;nan;100751.97;4741656;30;44970;-86
2021/10/04 05:16:53;;;;;;;;;;;;;;;;;;;;;
2021/10/04 05:19:44;;;;;;;;;;;;;;;;;;;;;
2021/10/04 05:22:10;;;;;;;;;1.00;1.00;;;;;13.59;nan;100721.63;4868348;29;71999;-84
2021/10/04 05:24:36;;;;;;;;;1.67;1.67;;;;;13.59;nan;100726.97;4868456;29;45532;-84
2021/10/04 05:31:20;;;;;;;;;2.00;2.00;;;;;13.89;nan;100755.50;4870192;29;45634;-84
2021/10/04 05:33:45;;;;;;;;;1.67;1.67;;;;;13.44;nan;100717.16;4869151;29;44904;-83
2021/10/04 05:36:11;;;;;;;;;1.00;1.00;;;;;13.30;nan;100703.78;4868877;29;45518;-83
2021/10/04 05:38:37;;;;;;;;;1.67;1.33;;;;;13.44;nan;100729.63;4870722;29;44785;-84
2021/10/04 05:41:27;;;;;;;;;;;;;;;;;;;;;
2021/10/04 05:47:43;;;;;;;;;;;;;;;;;;;;;
2021/10/04 05:50:14;;;;;;;;;2.00;2.00;;;;;13.46;nan;100746.56;4869782;29;64272;-84
2021/10/04 05:53:01;;;;;;;;;;;;;;;;;;;;;
2021/10/04 05:55:31;;;;;;;;;2.00;2.00;;;;;13.42;nan;100732.28;4870661;29;72773;-85
2021/10/04 06:07:47;;;;;;;;;2.00;2.00;;;;;13.31;nan;100713.59;4851012;29;45510;-83
2021/10/04 06:10:20;;;;;;;;;0.67;0.67;;;;;13.49;nan;100715.41;4855697;29;45382;-83
2021/10/04 06:12:57;;;;;;;;;4.00;4.00;;;;;13.66;nan;100760.84;4841362;29;44902;-83
2021/10/04 06:15:46;;;;;;;;;1.00;1.00;;;;;13.66;nan;100755.50;4842091;29;47912;-84
2021/10/04 06:18:55;;;;;;;;;;;;;;;;;;;;;
2021/10/04 06:21:34;;;;;;;;;1.00;1.00;;;;;13.64;nan;100773.31;4756213;29;69132;-83
2021/10/04 06:24:00;;;;;;;;;1.00;1.00;;;;;13.39;nan;100735.88;4791939;29;45121;-82
2021/10/04 06:26:26;;;;;;;;;1.67;1.00;;;;;13.38;nan;100722.50;4786933;29;45586;-82
2021/10/04 06:32:17;;;;;;;;;1.00;1.00;;;;;13.77;nan;100758.19;4760035;29;44807;-82
2021/10/04 06:34:49;;;;;;;;;4.67;4.67;;;;;13.68;nan;100785.78;4790369;29;44801;-82
2021/10/04 06:37:18;;;;;;;;;2.00;1.00;;;;;13.54;nan;100740.34;4762541;29;47371;-82
2021/10/04 06:39:46;;;;;;;;;1.00;1.00;;;;;13.51;nan;100766.16;4806566;29;45204;-81
2021/10/04 06:42:19;;;;;;;;;5.00;5.00;;;;;13.79;nan;100796.50;4791890;29;44779;-82
2021/10/04 06:45:00;;;;;;;;;3.00;3.00;;;;;13.71;nan;100763.53;4791146;29;45393;-83
2021/10/04 06:57:37;;;;;;;;;1.00;1.00;;;;;13.75;nan;100771.53;4878506;29;44810;-84
2021/10/04 07:00:17;;;;;;;;;2.00;2.00;;;;;13.85;nan;100787.59;4859196;29;46387;-84
2021/10/04 07:03:32;;;;;;;;;2.67;2.67;;;;;14.05;nan;100823.28;4874260;29;45754;-84
2021/10/04 07:06:00;;;;;;;;;2.00;1.00;;;;;13.70;nan;100797.38;4860074;29;44809;-84
2021/10/04 07:12:31;;;;;;;;;3.00;2.00;;;;;14.03;nan;100797.44;4856876;29;45618;-83
2021/10/04 07:15:00;;;;;;;;;2.00;2.00;;;;;14.17;nan;100811.69;4855660;29;44911;-83
2021/10/04 07:17:55;;;;;;;;;;;;;;;;;;;;;
2021/10/04 07:20:21;;;;;;;;;3.00;3.00;;;;;14.11;nan;100801.00;4853773;29;64726;-83
2021/10/04 07:22:49;;;;;;;;;3.00;3.00;;;;;14.30;nan;100812.56;4855868;29;45620;-83
2021/10/04 07:25:16;;;;;;;;;2.67;1.67;;;;;14.42;nan;100817.91;4854632;29;45927;-82
2021/10/04 07:27:49;;;;;;;;;1.00;1.00;;;;;14.72;nan;100837.56;4823339;29;45357;-84
2021/10/04 07:31:05;;;;;;;;;2.00;1.00;;;;;14.90;nan;100842.88;4865516;29;45481;-86
2021/10/04 07:37:07;;;;;;;;;1.00;1.00;;;;;14.58;nan;100797.44;4761520;29;45390;-82
2021/10/04 07:39:42;;;;;;;;;1.00;1.00;;;;;14.84;nan;100807.22;4744097;30;44802;-82
2021/10/04 07:42:08;;;;;;;;;1.00;1.00;;;;;15.04;nan;100855.38;4744872;30;45607;-82
2021/10/04 07:44:35;;;;;;;;;1.33;1.33;;;;;15.06;nan;100827.66;4727786;30;47382;-81
2021/10/04 07:47:06;;;;;;;;;2.00;0.67;;;;;15.17;nan;100851.78;4742703;29;45562;-81
2021/10/04 07:49:41;;;;;;;;;2.00;2.00;;;;;14.98;nan;100806.25;4743591;29;45522;-81
2021/10/04 07:52:07;;;;;;;;;0.67;0.67;;;;;15.26;nan;100843.69;4745569;29;45507;-83
2021/10/04 07:54:32;;;;;;;;;1.33;0.33;;;;;15.30;nan;100848.13;4747205;29;45447;-80
2021/10/04 07:57:04;;;;;;;;;4.00;1.33;;;;;15.23;nan;100841.03;4744167;29;45684;-80
2021/10/04 07:59:40;;;;;;;;;1.00;1.00;;;;;15.27;nan;100836.53;4745669;29;45647;-81
2021/10/04 08:02:10;;;;;;;;;0.33;0.33;;;;;15.66;nan;100861.41;4740913;29;44867;-81
2021/10/04 08:04:38;;;;;;;;;1.33;1.00;;;;;15.54;nan;100825.69;4766840;29;45864;-80
2021/10/04 08:07:13;;;;;;;;;3.00;3.00;;;;;15.78;nan;100859.56;4803436;29;45632;-81
2021/10/04 08:09:44;;;;;;;;;1.67;1.67;;;;;15.75;nan;100856.91;4802294;29;44954;-83
2021/10/04 08:15:46;;;;;;;;;4.00;1.00;;;;;16.22;nan;100868.25;4841175;29;46542;-82
2021/10/04 08:18:24;;;;;;;;;3.00;1.00;;;;;16.05;nan;100837.94;4845463;29;45550;-83
2021/10/04 08:21:04;;;;;;;;;2.00;2.00;;;;;16.17;nan;100852.16;4869825;29;45410;-83
2021/10/04 08:23:37;;;;;;;;;1.00;0.00;;;;;16.22;nan;100861.97;4847573;29;45360;-81
2021/10/04 08:30:33;;;;;;;;;;;;;;;;;;;;;
2021/10/04 08:33:40;;;;;;;;;4.67;4.67;;;;;16.37;nan;100819.81;4868426;29;68240;-82
2021/10/04 08:36:11;;;;;;;;;1.33;1.33;;;;;16.51;nan;100865.31;4788396;29;45496;-82
2021/10/04 08:39:41;;;;;;;;;;;;;;;;;;;;;
2021/10/04 08:42:40;;;;;;;;;;;;;;;;;;;;;
2021/10/04 08:45:07;;;;;;;;;2.00;2.00;;;;;16.83;nan;100857.94;4779082;29;67986;-81
2021/10/04 08:51:51;;;;;;;;;6.67;4.33;;;;;17.22;nan;100861.97;4734235;29;45578;-82
2021/10/04 08:59:14;;;;;;;;;;;;;;;;;;;;;
2021/10/04 09:19:39;;;;;;;;;1.33;1.33;;;;;17.98;nan;100857.44;4630132;30;45007;-82
2021/10/04 09:26:20;;;;;;;;;2.33;1.67;;;;;18.28;nan;100860.59;4636763;30;45407;-83
2021/10/04 09:44:17;;;;;;;;;;;;;;;;;;;;;
2021/10/04 09:50:37;;;;;;;;;1.33;0.33;;;;;18.61;nan;100815.13;4646024;30;45498;-83
2021/10/04 10:00:49;;;;;;;;;1.00;1.00;;;;;19.10;nan;100853.78;4644847;30;45662;-82
2021/10/04 10:07:06;;;;;;;;;1.67;1.67;;;;;19.30;nan;100854.28;4641721;30;44920;-84
2021/10/04 10:13:34;;;;;;;;;4.00;4.00;;;;;19.37;nan;100849.66;4650418;30;45381;-82
2021/10/04 10:16:53;;;;;;;;;;;;;;;;;;;;;
2021/10/04 10:23:46;;;;;;;;;;;;;;;;;;;;;
2021/10/04 10:29:29;;;;;;;;;2.33;2.33;;;;;19.65;nan;100855.34;4745520;29;45452;-83
2021/10/04 10:32:18;;;;;;;;;1.00;1.00;;;;;19.80;nan;100854.16;4750665;29;46043;-82
2021/10/04 10:43:03;;;;;;;;;;;;;;;;;;;;;
2021/10/04 10:45:57;;;;;;;;;5.00;4.00;;;;;20.30;nan;100854.81;4691684;30;45547;-81
2021/10/04 10:48:53;;;;;;;;;7.00;6.67;;;;;20.46;nan;100854.41;4709742;30;45678;-82
2021/10/04 10:51:20;;;;;;;;;3.00;3.00;;;;;20.08;nan;100827.44;4712856;30;46719;-81
2021/10/04 10:53:51;;;;;;;;;2.00;2.00;;;;;20.30;nan;100838.59;4710488;30;46027;-82
2021/10/04 10:56:17;;;;;;;;;4.50;4.00;;;;;19.97;nan;100814.16;4731149;30;45543;-81
2021/10/04 10:58:45;;;;;;;;;2.67;2.67;;;;;20.02;nan;100800.56;4755339;29;45956;-80
2021/10/04 11:01:45;;;;;;;;;2.00;2.00;;;;;20.68;nan;100843.97;4755313;29;45478;-81
2021/10/04 11:05:23;;;;;;;;;;;;;;;;;;;;;
2021/10/04 11:08:53;;;;;;;;;;;;;;;;;;;;;
2021/10/04 11:20:15;;;;;;;;;3.67;3.00;;;;;21.04;nan;100793.41;5057549;23;46781;-83
2021/10/04 11:23:01;;;;;;;;;3.00;2.00;;;;;21.18;nan;100834.47;4887134;29;46338;-83
2021/10/04 11:26:07;;;;;;;;;0.67;0.67;;;;;21.49;nan;100817.41;4885796;29;45435;-85
2021/10/04 11:29:07;;;;;;;;;4.67;3.67;;;;;21.49;nan;100821.91;4818378;29;45539;-83
2021/10/04 11:32:25;;;;;;;;;;;;;;;;;;;;;
2021/10/04 11:34:53;;;;;;;;;1.00;1.00;;;;;21.10;nan;100805.88;4798306;29;65549;-83
2021/10/04 11:37:54;;;;;;;;;3.67;2.00;;;;;21.28;nan;100794.53;4806053;29;45701;-84
2021/10/04 11:40:17;;;;;;;;;0.00;0.00;;;;;21.25;nan;100797.34;4814650;29;45532;-83
2021/10/04 11:42:43;;;;;;;;;1.75;1.00;;;;;21.25;nan;100796.44;4817633;29;45614;-84
2021/10/04 11:45:13;;;;;;;;;1.25;0.50;;;;;21.69;nan;100807.78;4808393;29;45775;-85
2021/10/04 11:54:42;;;;;;;;;0.50;0.50;;;;;21.98;nan;100807.75;4812677;29;45573;-83
2021/10/04 11:57:32;;;;;;;;;2.00;2.00;;;;;21.72;nan;100792.34;4808850;29;45618;-84
2021/10/04 12:00:26;;;;;;;;;0.00;0.00;;;;;21.53;nan;100793.81;4845826;29;45264;-81
2021/10/04 12:03:50;;;;;;;;;2.67;1.00;;;;;21.59;nan;100812.56;4858936;29;45571;-82
2021/10/04 12:09:54;;;;;;;;;;;;;;;;;;;;;
2021/10/04 12:12:43;;;;;;;;;0.00;0.00;;;;;21.67;nan;100771.75;4834227;29;74024;-82
2021/10/04 12:15:47;;;;;;;;;1.50;0.00;;;;;21.83;nan;100786.56;4834279;29;44899;-87
2021/10/04 12:18:29;;;;;;;;;1.00;1.00;;;;;21.90;nan;100782.75;4784209;29;45521;-82
2021/10/04 12:21:50;;;;;;;;;;;;;;;;;;;;;
2021/10/04 12:25:31;;;;;;;;;1.00;0.25;;;;;22.00;nan;100764.38;4823864;29;75206;-81
2021/10/04 12:28:41;;;;;;;;;;;;;;;;;;;;;
2021/10/04 12:31:58;;;;;;;;;1.00;1.00;;;;;22.16;nan;100743.97;4812153;29;68689;-84
2021/10/04 12:35:07;;;;;;;;;3.67;3.67;;;;;22.29;nan;100784.22;4799789;29;45578;-82
2021/10/04 12:38:06;;;;;;;;;0.50;0.50;;;;;22.42;nan;100782.88;4800435;29;47058;-82
2021/10/04 12:43:46;;;;;;;;;0.25;0.25;;;;;22.09;nan;100774.88;4794398;29;45507;-82
2021/10/04 12:46:20;;;;;;;;;3.50;1.50;;;;;22.15;nan;100771.97;4780936;29;45929;-84
2021/10/04 12:49:39;;;;;;;;;1.00;1.00;;;;;22.14;nan;100767.50;4785093;29;47048;-83
2021/10/04 12:52:19;;;;;;;;;0.00;0.00;;;;;22.00;nan;100753.53;4778489;29;44986;-82
2021/10/04 12:54:57;;;;;;;;;0.00;0.00;;;;;22.26;nan;100762.63;4759243;29;45394;-82
2021/10/04 12:57:35;;;;;;;;;2.25;2.00;;;;;22.30;nan;100726.38;4739692;29;45350;-82
2021/10/04 13:46:54;;;;;;;;;1.00;1.00;;;;;23.14;nan;100733.28;4768308;29;44942;-83
2021/10/04 13:54:43;;;;;;;;;1.00;1.00;;;;;23.15;nan;100724.22;4751129;30;45503;-82
2021/10/04 13:58:04;;;;;;;;;;;;;;;;;;;;;
2021/10/04 14:01:44;;;;;;;;;;;;;;;;;;;;;
2021/10/04 14:04:29;;;;;;;;;;;;;;;;;;;;;
2021/10/04 14:07:16;;;;;;;;;;;;;;;;;;;;;
2021/10/04 14:09:57;;;;;;;;;1.00;1.00;;;;;23.02;nan;100722.91;4680654;30;72913;-84
2021/10/04 14:20:03;;;;;;;;;0.00;0.00;;;;;22.74;nan;100713.06;4675705;30;46182;-86
2021/10/04 14:23:19;;;;;;;;;;;;;;;;;;;;;
2021/10/04 14:29:59;;;;;;;;;;;;;;;;;;;;;
2021/10/04 14:44:32;;;;;;;;;;;;;;;;;;;;;
2021/10/04 14:53:52;;;;;;;;;2.00;0.00;;;;;22.60;nan;100677.44;4712895;30;45425;-82
2021/10/04 14:56:32;;;;;;;;;1.25;1.25;;;;;22.94;nan;100687.91;4713711;30;45575;-83
2021/10/04 15:06:21;;;;;;;;;0.67;0.00;;;;;22.68;nan;100675.31;4730576;29;45439;-84
2021/10/04 15:09:08;;;;;;;;;;;;;;;;;;;;;
2021/10/04 15:11:48;;;;;;;;;2.00;2.00;;;;;22.34;nan;100682.00;4748196;29;74317;-82
2021/10/04 15:15:13;;;;;;;;;;;;;;;;;;;;;
2021/10/04 15:25:06;;;;;;;;;0.25;0.25;;;;;22.33;nan;100661.25;4758958;29;45344;-84
2021/10/04 15:27:54;;;;;;;;;2.00;0.00;;;;;22.13;nan;100653.78;4741026;29;45504;-83
2021/10/04 15:31:14;;;;;;;;;;;;;;;;;;;;;
2021/10/04 15:34:07;;;;;;;;;;;;;;;;;;;;;
2021/10/04 15:37:25;;;;;;;;;0.00;0.00;;;;;22.32;nan;100682.03;4730579;30;75303;-83
2021/10/04 15:40:29;;;;;;;;;;;;;;;;;;;;;
2021/10/04 15:43:03;;;;;;;;;0.00;0.00;;;;;21.97;nan;100664.28;4787411;29;69218;-83
2021/10/04 15:45:59;;;;;;;;;3.00;1.33;;;;;22.00;nan;100672.31;4791705;29;45186;-84
2021/10/04 15:49:05;;;;;;;;;1.00;1.00;;;;;22.02;nan;100672.25;4796572;29;45766;-83
2021/10/04 15:51:43;;;;;;;;;0.00;0.00;;;;;21.64;nan;100669.00;4784634;29;45563;-83
2021/10/04 15:54:32;;;;;;;;;0.67;0.67;;;;;21.74;nan;100673.19;4796929;29;45601;-84
2021/10/04 15:57:31;;;;;;;;;1.00;1.00;;;;;21.73;nan;100679.50;4788121;29;45940;-85
2021/10/04 16:03:59;;;;;;;;;;;;;;;;;;;;;
2021/10/04 16:06:36;;;;;;;;;0.00;0.00;;;;;21.37;nan;100650.88;4815467;29;45501;-82
2021/10/04 16:16:17;;;;;;;;;;;;;;;;;;;;;
2021/10/04 16:22:34;;;;;;;;;1.00;1.00;;;;;20.82;nan;100630.06;4759188;29;45770;-83
2021/10/04 16:32:18;;;;;;;;;1.00;1.00;;;;;21.11;nan;100658.94;4691868;30;44788;-82
2021/10/04 16:35:02;;;;;;;;;1.33;1.00;;;;;20.98;nan;100625.97;4692743;30;45404;-84
2021/10/04 16:37:56;;;;;;;;;0.00;0.00;;;;;21.02;nan;100637.56;4697524;30;45700;-83
2021/10/04 16:48:04;;;;;;;;;;;;;;;;;;;;;
2021/10/04 16:53:54;;;;;;;;;2.00;1.00;;;;;21.01;nan;100647.53;4674775;30;44912;-82
2021/10/04 16:56:21;;;;;;;;;1.00;1.00;;;;;20.93;nan;100650.44;4677001;30;45560;-83
2021/10/04 16:58:46;;;;;;;;;0.67;0.67;;;;;20.68;nan;100636.78;4702343;29;45573;-83
2021/10/04 17:01:49;;;;;;;;;3.00;1.00;;;;;20.89;nan;100648.78;4800507;29;46344;-83
2021/10/04 17:05:16;;;;;;;;;0.50;0.50;;;;;20.84;nan;100644.44;4784078;29;45513;-82
2021/10/04 17:08:43;;;;;;;;;;;;;;;;;;;;;
2021/10/04 17:11:22;;;;;;;;;2.33;1.67;;;;;20.23;nan;100587.63;4730231;30;44819;-82
2021/10/04 17:13:54;;;;;;;;;2.00;2.00;;;;;20.44;nan;100614.03;4840390;23;45451;-82
2021/10/04 17:16:20;;;;;;;;;1.67;1.67;;;;;20.23;nan;100628.13;4913543;29;45409;-81
2021/10/04 17:19:02;;;;;;;;;;;;;;;;;;;;;
2021/10/04 17:21:52;;;;;;;;;1.00;0.67;;;;;20.03;nan;100602.56;4914793;29;65836;-83
2021/10/04 17:24:19;;;;;;;;;2.00;2.00;;;;;19.77;nan;100606.88;4898843;29;46720;-82
2021/10/04 17:26:53;;;;;;;;;1.67;1.33;;;;;19.94;nan;100636.09;4897008;29;45558;-83
2021/10/04 17:30:20;;;;;;;;;2.33;2.33;;;;;20.06;nan;100629.50;4898055;29;45452;-83
2021/10/04 17:32:46;;;;;;;;;3.67;2.67;;;;;19.51;nan;100598.50;4822194;29;45664;-82
2021/10/04 17:35:22;;;;;;;;;2.00;2.00;;;;;19.60;nan;100614.47;4821270;29;47088;-83
2021/10/04 17:38:01;;;;;;;;;;;;;;;;;;;;;
2021/10/04 17:40:47;;;;;;;;;5.33;2.00;;;;;19.58;nan;100609.09;4837313;29;68136;-82
2021/10/04 17:43:12;;;;;;;;;3.00;2.67;;;;;19.23;nan;100587.50;4820549;29;45900;-82
2021/10/04 17:45:44;;;;;;;;;3.67;3.67;;;;;19.25;nan;100601.81;4835631;29;45801;-82
2021/10/04 17:48:10;;;;;;;;;2.67;2.00;;;;;19.23;nan;100607.28;4835830;29;45582;-82
2021/10/04 17:50:36;;;;;;;;;4.00;4.00;;;;;19.15;nan;100607.47;4834104;29;45832;-82
2021/10/04 17:53:02;;;;;;;;;5.00;5.00;;;;;19.15;nan;100618.25;4834167;29;45570;-82
2021/10/04 17:55:30;;;;;;;;;4.67;3.00;;;;;18.91;nan;100587.34;4833732;29;46569;-82
2021/10/04 17:58:09;;;;;;;;;6.33;4.33;;;;;19.02;nan;100583.50;4835656;29;44875;-82
2021/10/04 18:00:42;;;;;;;;;4.00;4.00;;;;;19.04;nan;100597.84;4832902;29;44837;-82
2021/10/04 18:03:08;;;;;;;;;3.00;3.00;;;;;18.94;nan;100613.31;4846794;29;45443;-82
2021/10/04 18:05:35;;;;;;;;;5.33;4.00;;;;;18.85;nan;100578.53;4897356;29;47233;-82
2021/10/04 18:08:05;;;;;;;;;2.00;2.00;;;;;18.99;nan;100617.69;4896722;29;45762;-83
2021/10/04 18:10:32;;;;;;;;;4.00;4.00;;;;;18.91;nan;100613.41;4897289;29;45728;-82
2021/10/04 18:12:58;;;;;;;;;4.33;4.33;;;;;18.79;nan;100598.41;4894321;29;44903;-83
2021/10/04 18:15:26;;;;;;;;;6.33;6.33;;;;;19.01;nan;100628.47;4895748;29;45149;-82
2021/10/04 18:17:52;;;;;;;;;4.00;4.00;;;;;18.77;nan;100601.09;4879058;29;45473;-82
2021/10/04 18:20:26;;;;;;;;;4.33;2.33;;;;;19.12;nan;100638.97;4863069;28;45494;-82
2021/10/04 18:22:59;;;;;;;;;6.33;6.33;;;;;19.16;nan;100638.88;4893965;29;45549;-81
2021/10/04 18:25:27;;;;;;;;;5.67;4.67;;;;;19.06;nan;100626.53;4892158;29;46831;-83
2021/10/04 18:28:05;;;;;;;;;3.00;3.00;;;;;18.78;nan;100588.50;4878373;29;45541;-82
2021/10/04 18:30:32;;;;;;;;;7.00;5.67;;;;;19.01;nan;100627.53;4878260;29;45465;-82
2021/10/04 18:32:59;;;;;;;;;3.33;3.33;;;;;18.96;nan;100622.25;4863530;29;44913;-83
2021/10/04 18:35:28;;;;;;;;;4.00;4.00;;;;;19.13;nan;100627.28;4877823;29;46679;-82
2021/10/04 18:38:00;;;;;;;;;3.33;3.33;;;;;19.11;nan;100613.84;4877723;29;45451;-83
2021/10/04 18:40:26;;;;;;;;;3.00;3.00;;;;;18.89;nan;100593.69;4894388;29;45891;-82
2021/10/04 18:42:55;;;;;;;;;2.67;2.67;;;;;18.88;nan;100594.59;4894028;29;45498;-82
2021/10/04 18:45:25;;;;;;;;;7.00;5.00;;;;;19.10;nan;100619.25;4895681;29;46596;-82
2021/10/04 18:54:34;;;;;;;;;6.00;5.00;;;;;18.95;nan;100605.22;4897741;28;45700;-82
2021/10/04 18:57:03;;;;;;;;;7.33;5.00;;;;;19.06;nan;100601.38;4879872;29;47087;-83
2021/10/04 18:59:30;;;;;;;;;7.00;5.00;;;;;18.87;nan;100595.53;4896643;29;45367;-82
2021/10/04 19:01:58;;;;;;;;;4.00;3.00;;;;;19.01;nan;100603.28;4904057;28;45514;-82
2021/10/04 19:04:29;;;;;;;;;3.67;3.67;;;;;18.92;nan;100607.97;4887551;29;45462;-83
2021/10/04 19:06:56;;;;;;;;;3.33;3.33;;;;;18.87;nan;100603.63;4904357;29;47204;-82
2021/10/04 19:09:21;;;;;;;;;5.33;3.00;;;;;18.68;nan;100576.16;4889426;28;44827;-82
2021/10/04 19:11:50;;;;;;;;;2.33;2.33;;;;;18.82;nan;100602.81;4906619;28;44799;-83
2021/10/04 19:14:18;;;;;;;;;1.00;1.00;;;;;18.97;nan;100597.97;4889911;29;44877;-83
2021/10/04 19:16:46;;;;;;;;;4.00;4.00;;;;;18.62;nan;100560.13;4905665;29;45348;-82
2021/10/04 19:19:21;;;;;;;;;4.67;4.67;;;;;18.89;nan;100591.88;4905437;28;45438;-82
2021/10/04 19:21:47;;;;;;;;;2.67;1.67;;;;;18.64;nan;100567.25;4890886;29;44874;-83
2021/10/04 19:24:17;;;;;;;;;7.00;4.00;;;;;18.64;nan;100545.69;4889419;29;44861;-83
2021/10/04 19:26:42;;;;;;;;;2.00;2.00;;;;;18.83;nan;100589.31;4898593;29;45352;-83
2021/10/04 19:29:08;;;;;;;;;3.67;3.00;;;;;18.95;nan;100594.44;4879209;29;45399;-83
2021/10/04 19:31:34;;;;;;;;;1.00;1.00;;;;;19.11;nan;100577.91;4878080;29;45451;-83
2021/10/04 19:34:01;;;;;;;;;3.00;3.00;;;;;18.87;nan;100556.00;4878757;29;44932;-83
2021/10/04 19:36:27;;;;;;;;;5.00;4.00;;;;;18.72;nan;100549.13;4879012;29;47030;-83
2021/10/04 19:38:52;;;;;;;;;5.33;5.33;;;;;18.83;nan;100565.06;4892361;29;45941;-83
2021/10/04 19:41:19;;;;;;;;;7.67;3.67;;;;;18.93;nan;100566.63;4892539;29;44938;-82
2021/10/04 19:43:49;;;;;;;;;4.33;4.00;;;;;18.91;nan;100540.66;4893598;29;45724;-83
2021/10/04 19:46:18;;;;;;;;;3.00;3.00;;;;;18.85;nan;100546.19;4877696;29;45479;-83
2021/10/04 19:48:44;;;;;;;;;3.67;3.67;;;;;18.87;nan;100561.38;4878819;29;44829;-83
2021/10/04 19:51:23;;;;;;;;;3.25;3.25;;;;;19.14;nan;100578.72;4876450;29;45442;-82
2021/10/04 19:53:53;;;;;;;;;2.25;2.25;;;;;19.04;nan;100587.06;4876298;29;44840;-83